sensor_id;sensor_type;location;lat;lon;timestamp;temperature;humidity
2855;DHT22;1435;49.472;10.940;2022-10-24T00:03:20;16.50;99.90
2855;DHT22;1435;49.472;10.940;2022-10-24T00:08:23;16.50;99.90
2855;DHT22;1435;49.472;10.940;2022-10-24T00:13:24;16.60;99.90
2855;DHT22;1435;49.472;10.940;2022-10-24T00:18:26;16.60;99.90
2855;DHT22;1435;49.472;10.940;2022-10-24T00:23:29;16.60;99.90
2855;DHT22;1435;49.472;10.940;2022-10-24T00:28:33;16.60;99.90
2855;DHT22;1435;49.472;10.940;2022-10-24T00:33:35;16.60;99.90
2855;DHT22;1435;49.472;10.940;2022-10-24T00:38:38;16.60;99.90
2855;DHT22;1435;49.472;10.940;2022-10-24T00:43:40;16.60;99.90
2855;DHT22;1435;49.472;10.940;2022-10-24T00:48:45;16.60;99.90
2855;DHT22;1435;49.472;10.940;2022-10-24T00:53:50;16.50;99.90
2855;DHT22;1435;49.472;10.940;2022-10-24T00:58:53;16.60;99.90
2855;DHT22;1435;49.472;10.940;2022-10-24T01:03:56;16.60;99.90
2855;DHT22;1435;49.472;10.940;2022-10-24T01:09:08;16.70;99.90
2855;DHT22;1435;49.472;10.940;2022-10-24T01:14:17;16.60;99.90
2855;DHT22;1435;49.472;10.940;2022-10-24T01:19:38;16.70;99.90
2855;DHT22;1435;49.472;10.940;2022-10-24T01:24:57;16.70;99.90
2855;DHT22;1435;49.472;10.940;2022-10-24T01:30:06;16.70;99.90
2855;DHT22;1435;49.472;10.940;2022-10-24T01:35:16;16.70;99.90
2855;DHT22;1435;49.472;10.940;2022-10-24T01:40:21;16.60;99.90
2855;DHT22;1435;49.472;10.940;2022-10-24T01:45:29;16.60;99.90
2855;DHT22;1435;49.472;10.940;2022-10-24T01:50:34;16.60;99.90
2855;DHT22;1435;49.472;10.940;2022-10-24T01:55:37;16.60;99.90
2855;DHT22;1435;49.472;10.940;2022-10-24T02:00:41;16.60;99.90
2855;DHT22;1435;49.472;10.940;2022-10-24T02:05:48;16.60;99.90
2855;DHT22;1435;49.472;10.940;2022-10-24T02:10:54;16.50;99.90
2855;DHT22;1435;49.472;10.940;2022-10-24T02:16:00;16.60;99.90
2855;DHT22;1435;49.472;10.940;2022-10-24T02:21:07;16.60;99.90
2855;DHT22;1435;49.472;10.940;2022-10-24T02:26:20;16.60;99.90
2855;DHT22;1435;49.472;10.940;2022-10-24T02:31:26;16.50;99.90
2855;DHT22;1435;49.472;10.940;2022-10-24T02:36:31;16.60;99.90
2855;DHT22;1435;49.472;10.940;2022-10-24T02:41:36;16.50;99.90
2855;DHT22;1435;49.472;10.940;2022-10-24T02:46:42;16.50;99.90
2855;DHT22;1435;49.472;10.940;2022-10-24T02:51:45;16.60;99.90
2855;DHT22;1435;49.472;10.940;2022-10-24T02:56:51;16.60;99.90
2855;DHT22;1435;49.472;10.940;2022-10-24T03:01:56;16.60;99.90
2855;DHT22;1435;49.472;10.940;2022-10-24T03:06:58;16.60;99.90
2855;DHT22;1435;49.472;10.940;2022-10-24T03:12:00;16.60;99.90
2855;DHT22;1435;49.472;10.940;2022-10-24T03:17:03;16.60;99.90
2855;DHT22;1435;49.472;10.940;2022-10-24T03:22:05;16.60;99.90
2855;DHT22;1435;49.472;10.940;2022-10-24T03:27:07;16.60;99.90
2855;DHT22;1435;49.472;10.940;2022-10-24T03:32:10;16.60;99.90
2855;DHT22;1435;49.472;10.940;2022-10-24T03:37:12;16.50;99.90
2855;DHT22;1435;49.472;10.940;2022-10-24T03:42:14;16.50;99.90
2855;DHT22;1435;49.472;10.940;2022-10-24T03:47:17;16.40;99.90
2855;DHT22;1435;49.472;10.940;2022-10-24T03:52:19;16.40;99.90
2855;DHT22;1435;49.472;10.940;2022-10-24T03:57:20;16.30;99.90
2855;DHT22;1435;49.472;10.940;2022-10-24T04:02:24;16.20;99.90
2855;DHT22;1435;49.472;10.940;2022-10-24T04:07:25;16.20;99.90
2855;DHT22;1435;49.472;10.940;2022-10-24T04:12:27;16.10;99.90
2855;DHT22;1435;49.472;10.940;2022-10-24T04:17:31;16.00;99.90
2855;DHT22;1435;49.472;10.940;2022-10-24T04:22:33;15.90;99.90
2855;DHT22;1435;49.472;10.940;2022-10-24T04:27:35;15.90;99.90
2855;DHT22;1435;49.472;10.940;2022-10-24T04:32:41;15.80;99.90
2855;DHT22;1435;49.472;10.940;2022-10-24T04:37:43;15.70;99.90
2855;DHT22;1435;49.472;10.940;2022-10-24T04:42:45;15.70;99.90
2855;DHT22;1435;49.472;10.940;2022-10-24T04:47:48;15.60;99.90
2855;DHT22;1435;49.472;10.940;2022-10-24T04:52:50;15.50;99.90
2855;DHT22;1435;49.472;10.940;2022-10-24T04:57:52;15.50;99.90
2855;DHT22;1435;49.472;10.940;2022-10-24T05:02:55;15.50;99.90
2855;DHT22;1435;49.472;10.940;2022-10-24T05:07:57;15.50;99.90
2855;DHT22;1435;49.472;10.940;2022-10-24T05:12:59;15.40;99.90
2855;DHT22;1435;49.472;10.940;2022-10-24T05:18:02;15.40;99.90
2855;DHT22;1435;49.472;10.940;2022-10-24T05:23:05;15.40;99.90
2855;DHT22;1435;49.472;10.940;2022-10-24T05:28:06;15.40;99.90
2855;DHT22;1435;49.472;10.940;2022-10-24T05:33:10;15.30;99.90
2855;DHT22;1435;49.472;10.940;2022-10-24T05:38:11;15.30;99.90
2855;DHT22;1435;49.472;10.940;2022-10-24T05:43:13;15.30;99.90
2855;DHT22;1435;49.472;10.940;2022-10-24T05:48:17;15.30;99.90
2855;DHT22;1435;49.472;10.940;2022-10-24T05:53:44;15.20;99.90
2855;DHT22;1435;49.472;10.940;2022-10-24T05:58:45;15.20;99.90
2855;DHT22;1435;49.472;10.940;2022-10-24T06:03:49;15.20;99.90
2855;DHT22;1435;49.472;10.940;2022-10-24T06:08:51;15.20;99.90
2855;DHT22;1435;49.472;10.940;2022-10-24T06:13:53;15.20;99.90
2855;DHT22;1435;49.472;10.940;2022-10-24T06:18:56;15.20;99.90
2855;DHT22;1435;49.472;10.940;2022-10-24T06:23:58;15.20;99.90
2855;DHT22;1435;49.472;10.940;2022-10-24T06:28:59;15.20;99.90
2855;DHT22;1435;49.472;10.940;2022-10-24T06:34:03;15.30;99.90
2855;DHT22;1435;49.472;10.940;2022-10-24T06:39:05;15.20;99.90
2855;DHT22;1435;49.472;10.940;2022-10-24T06:44:07;15.10;99.90
2855;DHT22;1435;49.472;10.940;2022-10-24T06:49:10;15.10;99.90
2855;DHT22;1435;49.472;10.940;2022-10-24T06:54:12;15.10;99.90
2855;DHT22;1435;49.472;10.940;2022-10-24T06:59:16;15.10;99.90
2855;DHT22;1435;49.472;10.940;2022-10-24T07:04:19;15.20;99.90
2855;DHT22;1435;49.472;10.940;2022-10-24T07:09:21;15.30;99.90
2855;DHT22;1435;49.472;10.940;2022-10-24T07:14:22;15.30;99.90
2855;DHT22;1435;49.472;10.940;2022-10-24T07:19:26;15.40;99.90
2855;DHT22;1435;49.472;10.940;2022-10-24T07:24:28;15.50;99.90
2855;DHT22;1435;49.472;10.940;2022-10-24T07:29:30;15.60;99.90
2855;DHT22;1435;49.472;10.940;2022-10-24T07:34:33;15.60;99.90
2855;DHT22;1435;49.472;10.940;2022-10-24T07:39:35;15.70;99.90
2855;DHT22;1435;49.472;10.940;2022-10-24T07:44:37;15.50;99.90
2855;DHT22;1435;49.472;10.940;2022-10-24T07:49:40;15.50;99.90
2855;DHT22;1435;49.472;10.940;2022-10-24T07:54:42;15.60;99.90
2855;DHT22;1435;49.472;10.940;2022-10-24T07:59:44;15.70;99.90
2855;DHT22;1435;49.472;10.940;2022-10-24T08:04:47;15.70;99.90
2855;DHT22;1435;49.472;10.940;2022-10-24T08:09:49;15.90;99.90
2855;DHT22;1435;49.472;10.940;2022-10-24T08:14:51;15.80;99.90
2855;DHT22;1435;49.472;10.940;2022-10-24T08:19:56;15.80;99.90
2855;DHT22;1435;49.472;10.940;2022-10-24T08:24:58;15.80;99.90
2855;DHT22;1435;49.472;10.940;2022-10-24T08:30:00;15.90;99.90
2855;DHT22;1435;49.472;10.940;2022-10-24T08:35:04;15.70;99.90
2855;DHT22;1435;49.472;10.940;2022-10-24T08:40:07;15.70;99.90
2855;DHT22;1435;49.472;10.940;2022-10-24T08:45:16;15.70;99.90
2855;DHT22;1435;49.472;10.940;2022-10-24T08:50:24;15.80;99.90
2855;DHT22;1435;49.472;10.940;2022-10-24T08:55:30;15.80;99.90
2855;DHT22;1435;49.472;10.940;2022-10-24T09:00:40;15.80;99.90
2855;DHT22;1435;49.472;10.940;2022-10-24T09:05:47;15.80;99.90
2855;DHT22;1435;49.472;10.940;2022-10-24T09:10:54;15.80;99.90
2855;DHT22;1435;49.472;10.940;2022-10-24T09:15:56;15.80;99.90
2855;DHT22;1435;49.472;10.940;2022-10-24T09:21:01;15.80;99.90
2855;DHT22;1435;49.472;10.940;2022-10-24T09:26:06;15.80;99.90
2855;DHT22;1435;49.472;10.940;2022-10-24T09:31:14;15.70;99.90
2855;DHT22;1435;49.472;10.940;2022-10-24T09:36:20;15.60;99.90
2855;DHT22;1435;49.472;10.940;2022-10-24T09:41:26;15.70;99.90
2855;DHT22;1435;49.472;10.940;2022-10-24T09:46:34;15.60;99.90
2855;DHT22;1435;49.472;10.940;2022-10-24T09:51:41;15.60;99.90
2855;DHT22;1435;49.472;10.940;2022-10-24T09:56:46;15.70;99.90
2855;DHT22;1435;49.472;10.940;2022-10-24T10:01:48;15.80;99.90
2855;DHT22;1435;49.472;10.940;2022-10-24T10:06:51;15.80;99.90
2855;DHT22;1435;49.472;10.940;2022-10-24T10:11:55;15.90;99.90
2855;DHT22;1435;49.472;10.940;2022-10-24T10:16:58;16.00;99.90
2855;DHT22;1435;49.472;10.940;2022-10-24T10:22:04;16.00;99.90
2855;DHT22;1435;49.472;10.940;2022-10-24T10:27:28;16.00;99.90
2855;DHT22;1435;49.472;10.940;2022-10-24T10:32:36;16.00;99.90
2855;DHT22;1435;49.472;10.940;2022-10-24T10:37:45;16.10;99.90
2855;DHT22;1435;49.472;10.940;2022-10-24T10:42:56;16.10;99.90
2855;DHT22;1435;49.472;10.940;2022-10-24T10:48:16;16.10;99.90
2855;DHT22;1435;49.472;10.940;2022-10-24T10:53:32;16.10;99.90
2855;DHT22;1435;49.472;10.940;2022-10-24T10:58:41;16.20;99.90
2855;DHT22;1435;49.472;10.940;2022-10-24T11:03:51;16.30;99.90
2855;DHT22;1435;49.472;10.940;2022-10-24T11:09:19;16.30;99.90
2855;DHT22;1435;49.472;10.940;2022-10-24T11:14:27;16.30;99.90
2855;DHT22;1435;49.472;10.940;2022-10-24T11:19:38;16.40;99.90
2855;DHT22;1435;49.472;10.940;2022-10-24T11:24:46;16.40;99.90
2855;DHT22;1435;49.472;10.940;2022-10-24T11:29:54;16.40;99.90
2855;DHT22;1435;49.472;10.940;2022-10-24T11:34:59;16.40;99.90
2855;DHT22;1435;49.472;10.940;2022-10-24T11:40:08;16.50;99.90
2855;DHT22;1435;49.472;10.940;2022-10-24T11:45:12;16.50;99.90
2855;DHT22;1435;49.472;10.940;2022-10-24T11:50:23;16.50;99.90
2855;DHT22;1435;49.472;10.940;2022-10-24T11:55:29;16.50;99.90
2855;DHT22;1435;49.472;10.940;2022-10-24T12:00:45;16.60;99.90
2855;DHT22;1435;49.472;10.940;2022-10-24T12:06:09;16.60;99.90
2855;DHT22;1435;49.472;10.940;2022-10-24T12:11:46;16.60;99.90
2855;DHT22;1435;49.472;10.940;2022-10-24T12:17:03;16.60;99.90
2855;DHT22;1435;49.472;10.940;2022-10-24T12:22:10;16.70;99.90
2855;DHT22;1435;49.472;10.940;2022-10-24T12:27:27;16.60;99.90
2855;DHT22;1435;49.472;10.940;2022-10-24T12:32:39;16.60;99.90
2855;DHT22;1435;49.472;10.940;2022-10-24T12:37:41;16.60;99.90
2855;DHT22;1435;49.472;10.940;2022-10-24T12:43:11;16.70;99.90
2855;DHT22;1435;49.472;10.940;2022-10-24T12:48:31;16.70;99.90
2855;DHT22;1435;49.472;10.940;2022-10-24T12:53:38;16.80;99.90
2855;DHT22;1435;49.472;10.940;2022-10-24T12:59:13;16.80;99.90
2855;DHT22;1435;49.472;10.940;2022-10-24T13:04:39;16.80;99.90
2855;DHT22;1435;49.472;10.940;2022-10-24T13:09:52;16.70;99.90
2855;DHT22;1435;49.472;10.940;2022-10-24T13:15:26;16.70;99.90
2855;DHT22;1435;49.472;10.940;2022-10-24T13:20:33;16.70;99.90
2855;DHT22;1435;49.472;10.940;2022-10-24T13:25:37;16.70;99.90
2855;DHT22;1435;49.472;10.940;2022-10-24T13:30:41;16.60;99.90
2855;DHT22;1435;49.472;10.940;2022-10-24T13:35:43;16.50;99.90
2855;DHT22;1435;49.472;10.940;2022-10-24T13:40:45;16.50;99.90
2855;DHT22;1435;49.472;10.940;2022-10-24T13:45:56;16.50;99.90
2855;DHT22;1435;49.472;10.940;2022-10-24T13:51:05;16.50;99.90
2855;DHT22;1435;49.472;10.940;2022-10-24T13:56:09;16.60;99.90
2855;DHT22;1435;49.472;10.940;2022-10-24T14:01:17;16.60;99.90
2855;DHT22;1435;49.472;10.940;2022-10-24T14:06:44;16.60;99.90
2855;DHT22;1435;49.472;10.940;2022-10-24T14:11:47;16.60;99.90
2855;DHT22;1435;49.472;10.940;2022-10-24T14:17:04;16.60;99.90
2855;DHT22;1435;49.472;10.940;2022-10-24T14:22:18;16.60;99.90
2855;DHT22;1435;49.472;10.940;2022-10-24T14:27:20;16.60;99.90
2855;DHT22;1435;49.472;10.940;2022-10-24T14:32:24;16.60;99.90
2855;DHT22;1435;49.472;10.940;2022-10-24T14:37:30;16.60;99.90
2855;DHT22;1435;49.472;10.940;2022-10-24T14:42:32;16.70;99.90
2855;DHT22;1435;49.472;10.940;2022-10-24T14:47:36;16.70;99.90
2855;DHT22;1435;49.472;10.940;2022-10-24T14:52:43;16.80;99.90
2855;DHT22;1435;49.472;10.940;2022-10-24T14:57:47;16.80;99.90
2855;DHT22;1435;49.472;10.940;2022-10-24T15:02:53;16.80;99.90
2855;DHT22;1435;49.472;10.940;2022-10-24T15:07:59;16.80;99.90
2855;DHT22;1435;49.472;10.940;2022-10-24T15:13:08;16.80;99.90
2855;DHT22;1435;49.472;10.940;2022-10-24T15:18:17;16.80;99.90
2855;DHT22;1435;49.472;10.940;2022-10-24T15:23:24;16.80;99.90
2855;DHT22;1435;49.472;10.940;2022-10-24T15:28:41;16.80;99.90
2855;DHT22;1435;49.472;10.940;2022-10-24T15:39:37;16.80;99.90
2855;DHT22;1435;49.472;10.940;2022-10-24T15:44:38;16.80;99.90
2855;DHT22;1435;49.472;10.940;2022-10-24T15:49:40;16.70;99.90
2855;DHT22;1435;49.472;10.940;2022-10-24T15:54:43;16.70;99.90
2855;DHT22;1435;49.472;10.940;2022-10-24T15:59:45;16.70;99.90
2855;DHT22;1435;49.472;10.940;2022-10-24T16:04:47;16.60;99.90
2855;DHT22;1435;49.472;10.940;2022-10-24T16:09:51;16.60;99.90
2855;DHT22;1435;49.472;10.940;2022-10-24T16:14:53;16.60;99.90
2855;DHT22;1435;49.472;10.940;2022-10-24T16:19:54;16.60;99.90
2855;DHT22;1435;49.472;10.940;2022-10-24T16:24:58;16.50;99.90
2855;DHT22;1435;49.472;10.940;2022-10-24T16:29:59;16.40;99.90
2855;DHT22;1435;49.472;10.940;2022-10-24T16:35:01;16.40;99.90
2855;DHT22;1435;49.472;10.940;2022-10-24T16:40:05;16.30;99.90
2855;DHT22;1435;49.472;10.940;2022-10-24T16:45:08;16.30;99.90
2855;DHT22;1435;49.472;10.940;2022-10-24T16:50:12;16.20;99.90
2855;DHT22;1435;49.472;10.940;2022-10-24T16:55:15;16.20;99.90
2855;DHT22;1435;49.472;10.940;2022-10-24T17:00:21;16.30;99.90
2855;DHT22;1435;49.472;10.940;2022-10-24T17:05:25;16.10;99.90
2855;DHT22;1435;49.472;10.940;2022-10-24T17:10:28;16.10;99.90
2855;DHT22;1435;49.472;10.940;2022-10-24T17:15:30;16.10;99.90
2855;DHT22;1435;49.472;10.940;2022-10-24T17:20:32;16.00;99.90
2855;DHT22;1435;49.472;10.940;2022-10-24T17:25:35;16.00;99.90
2855;DHT22;1435;49.472;10.940;2022-10-24T17:30:37;15.90;99.90
2855;DHT22;1435;49.472;10.940;2022-10-24T17:35:42;15.90;99.90
2855;DHT22;1435;49.472;10.940;2022-10-24T17:40:48;15.90;99.90
2855;DHT22;1435;49.472;10.940;2022-10-24T17:45:51;15.80;99.90
2855;DHT22;1435;49.472;10.940;2022-10-24T17:50:55;15.70;99.90
2855;DHT22;1435;49.472;10.940;2022-10-24T17:55:59;15.70;99.90
2855;DHT22;1435;49.472;10.940;2022-10-24T18:01:01;15.60;99.90
2855;DHT22;1435;49.472;10.940;2022-10-24T18:06:04;15.70;99.90
2855;DHT22;1435;49.472;10.940;2022-10-24T18:11:08;15.60;99.90
2855;DHT22;1435;49.472;10.940;2022-10-24T18:16:12;15.60;99.90
2855;DHT22;1435;49.472;10.940;2022-10-24T18:21:16;15.60;99.90
2855;DHT22;1435;49.472;10.940;2022-10-24T18:26:22;15.40;99.90
2855;DHT22;1435;49.472;10.940;2022-10-24T18:31:25;15.50;99.90
2855;DHT22;1435;49.472;10.940;2022-10-24T18:36:29;15.50;99.90
2855;DHT22;1435;49.472;10.940;2022-10-24T18:41:41;15.40;99.90
2855;DHT22;1435;49.472;10.940;2022-10-24T18:46:46;15.40;99.90
2855;DHT22;1435;49.472;10.940;2022-10-24T18:51:54;15.40;99.90
2855;DHT22;1435;49.472;10.940;2022-10-24T18:56:59;15.40;99.90
2855;DHT22;1435;49.472;10.940;2022-10-24T19:02:14;15.40;99.90
2855;DHT22;1435;49.472;10.940;2022-10-24T19:07:18;15.40;99.90
2855;DHT22;1435;49.472;10.940;2022-10-24T19:12:24;15.50;99.90
2855;DHT22;1435;49.472;10.940;2022-10-24T19:17:27;15.40;99.90
2855;DHT22;1435;49.472;10.940;2022-10-24T19:22:29;15.40;99.90
2855;DHT22;1435;49.472;10.940;2022-10-24T19:27:32;15.50;99.90
2855;DHT22;1435;49.472;10.940;2022-10-24T19:32:34;15.40;99.90
2855;DHT22;1435;49.472;10.940;2022-10-24T19:37:36;15.40;99.90
2855;DHT22;1435;49.472;10.940;2022-10-24T19:42:39;15.40;99.90
2855;DHT22;1435;49.472;10.940;2022-10-24T19:47:41;15.40;99.90
2855;DHT22;1435;49.472;10.940;2022-10-24T19:52:43;15.40;99.90
2855;DHT22;1435;49.472;10.940;2022-10-24T19:57:46;15.30;99.90
2855;DHT22;1435;49.472;10.940;2022-10-24T20:02:48;15.30;99.90
2855;DHT22;1435;49.472;10.940;2022-10-24T20:07:50;15.40;99.90
2855;DHT22;1435;49.472;10.940;2022-10-24T20:12:53;15.30;99.90
2855;DHT22;1435;49.472;10.940;2022-10-24T20:17:55;15.30;99.90
2855;DHT22;1435;49.472;10.940;2022-10-24T20:22:57;15.10;99.90
2855;DHT22;1435;49.472;10.940;2022-10-24T20:28:02;15.00;99.90
2855;DHT22;1435;49.472;10.940;2022-10-24T20:33:03;14.90;99.90
2855;DHT22;1435;49.472;10.940;2022-10-24T20:38:05;14.90;99.90
2855;DHT22;1435;49.472;10.940;2022-10-24T20:43:08;14.90;99.90
2855;DHT22;1435;49.472;10.940;2022-10-24T20:48:10;14.80;99.90
2855;DHT22;1435;49.472;10.940;2022-10-24T20:53:12;14.80;99.90
2855;DHT22;1435;49.472;10.940;2022-10-24T20:58:16;14.80;99.90
2855;DHT22;1435;49.472;10.940;2022-10-24T21:03:18;14.90;99.90
2855;DHT22;1435;49.472;10.940;2022-10-24T21:08:19;15.00;99.90
2855;DHT22;1435;49.472;10.940;2022-10-24T21:13:23;15.00;99.90
2855;DHT22;1435;49.472;10.940;2022-10-24T21:18:24;15.00;99.90
2855;DHT22;1435;49.472;10.940;2022-10-24T21:23:26;15.00;99.90
2855;DHT22;1435;49.472;10.940;2022-10-24T21:28:29;15.00;99.90
2855;DHT22;1435;49.472;10.940;2022-10-24T21:33:31;14.90;99.90
2855;DHT22;1435;49.472;10.940;2022-10-24T21:38:33;14.80;99.90
2855;DHT22;1435;49.472;10.940;2022-10-24T21:43:38;14.80;99.90
2855;DHT22;1435;49.472;10.940;2022-10-24T21:48:41;14.70;99.90
2855;DHT22;1435;49.472;10.940;2022-10-24T21:53:44;14.70;99.90
2855;DHT22;1435;49.472;10.940;2022-10-24T21:58:49;14.60;99.90
2855;DHT22;1435;49.472;10.940;2022-10-24T22:03:51;14.60;99.90
2855;DHT22;1435;49.472;10.940;2022-10-24T22:08:54;14.60;99.90
2855;DHT22;1435;49.472;10.940;2022-10-24T22:13:57;14.60;99.90
2855;DHT22;1435;49.472;10.940;2022-10-24T22:19:00;14.60;99.90
2855;DHT22;1435;49.472;10.940;2022-10-24T22:24:04;14.60;99.90
2855;DHT22;1435;49.472;10.940;2022-10-24T22:29:09;14.40;99.90
2855;DHT22;1435;49.472;10.940;2022-10-24T22:34:14;14.50;99.90
2855;DHT22;1435;49.472;10.940;2022-10-24T22:39:18;14.40;99.90
2855;DHT22;1435;49.472;10.940;2022-10-24T22:44:22;14.30;99.90
2855;DHT22;1435;49.472;10.940;2022-10-24T22:49:31;14.40;99.90
2855;DHT22;1435;49.472;10.940;2022-10-24T22:54:36;14.40;99.90
2855;DHT22;1435;49.472;10.940;2022-10-24T22:59:40;14.30;99.90
2855;DHT22;1435;49.472;10.940;2022-10-24T23:04:49;14.20;99.90
2855;DHT22;1435;49.472;10.940;2022-10-24T23:09:52;14.20;99.90
2855;DHT22;1435;49.472;10.940;2022-10-24T23:14:55;14.20;99.90
2855;DHT22;1435;49.472;10.940;2022-10-24T23:19:58;14.20;99.90
2855;DHT22;1435;49.472;10.940;2022-10-24T23:25:00;14.20;99.90
2855;DHT22;1435;49.472;10.940;2022-10-24T23:30:06;14.20;99.90
2855;DHT22;1435;49.472;10.940;2022-10-24T23:35:16;14.30;99.90
2855;DHT22;1435;49.472;10.940;2022-10-24T23:40:28;14.20;99.90
2855;DHT22;1435;49.472;10.940;2022-10-24T23:45:35;14.20;99.90
2855;DHT22;1435;49.472;10.940;2022-10-24T23:50:43;14.30;99.90
2855;DHT22;1435;49.472;10.940;2022-10-24T23:55:49;14.20;99.90
